Hlavní strana
METAR-TAF:

METAR-TAF

Letiště :

Mo i Rana, Norsko

zeměpisná šířka: 66-22N, zeměpisná délka: 014-18E, výška: 7 m

Aktuální stav počasí

Zpráva byla vytvořena před 4 hodinami a 28 minutami, v 23:20 UTC
vítr z různých směrů 2 kt
Teplota 1°C
Vlhkost vzduchu 64%
Tlak 1018 hPa
Viditelnost 10 km a více
Polojasno ve výšce 5000 ft
Oblačno až skoro zataženo ve výšce 7000 ft
slabé sněhové přeháňky

METAR: ENRA 172320Z VRB02KT 9999 -SHSN SCT050 BKN070 01/M05 Q1018

Čas: 04:48 (03:48 UTC)

Předpověď počasí

Zpráva byla vytvořena před 10 hodinami a 48 minutami, v 17:00 UTC
Předpověď platná od 17 v 18 UTC do 17 v 23 UTC
Východní vítr 8 kt
Viditelnost 10 km a více
Oblačno až skoro zataženo ve výšce 4000 ft

TAF: ENRA 171700Z 1718/1723 09008KT 9999 BKN040

Stav a předpovědi počasí z více než 4 000 letišť (zprávy METAR a TAF).

Červené a žluté tečky na mapě představují dostupné meteorologické stanice.

Když kurzor umístíte na tečku, zobrazí se název stanice.

Pak kliknutím zobrazíte stav a předpověď počasí.

Chcete-li změnit mapu, kliknutím na zelené tlačítko se znaménkem +mapu přiblížíte, kliknutím na zelené tlačítko se znaménkem – mapu oddálíte a kliknutím na zelené šipky přejdete na sousední mapy.


METAR-TAF: